Time;durP1;ratioP1;P1;durP2;ratioP2;P2;SDS_P1;SDS_P2;PMS_P1;PMS_P2;Temp;Humidity;BMP_temperature;BMP_pressure;BME280_temperature;BME280_humidity;BME280_pressure;Samples;Min_cycle;Max_cycle;Signal;HPM_P1;HPM_P2
2020/12/25 00:00:50;;;;;;;9.00;3.25;;;5.60;99.90;;;;;;4935796;29;20556;-77
2020/12/25 00:03:16;;;;;;;11.43;3.00;;;5.60;99.90;;;;;;4932685;29;20215;-77
2020/12/25 00:05:45;;;;;;;15.43;3.60;;;5.60;99.90;;;;;;4935725;29;20218;-76
2020/12/25 00:08:13;;;;;;;16.48;3.88;;;5.60;99.90;;;;;;4934934;29;20211;-77
2020/12/25 00:10:41;;;;;;;16.45;3.63;;;5.60;99.90;;;;;;4935856;29;20203;-76
2020/12/25 00:13:08;;;;;;;8.40;2.45;;;5.60;99.90;;;;;;4933664;29;20589;-77
2020/12/25 00:15:35;;;;;;;4.88;1.67;;;5.60;99.90;;;;;;4934622;29;20195;-77
2020/12/25 00:18:01;;;;;;;12.52;2.72;;;5.70;99.90;;;;;;4935157;29;20210;-77
2020/12/25 00:20:27;;;;;;;9.18;2.03;;;5.70;99.90;;;;;;4935721;29;20208;-77
2020/12/25 00:22:54;;;;;;;11.02;1.83;;;5.70;99.90;;;;;;4933996;29;20204;-76
2020/12/25 00:25:20;;;;;;;16.13;2.50;;;5.80;99.90;;;;;;4935329;29;20210;-76
2020/12/25 00:27:46;;;;;;;7.22;1.38;;;5.80;99.90;;;;;;4934126;29;20246;-77
2020/12/25 00:30:13;;;;;;;14.18;2.33;;;5.80;99.90;;;;;;4934997;29;20235;-77
2020/12/25 00:32:40;;;;;;;5.85;1.80;;;5.90;99.90;;;;;;4916669;29;20219;-76
2020/12/25 00:35:06;;;;;;;8.90;1.77;;;5.90;99.90;;;;;;4935134;29;20206;-76
2020/12/25 00:37:32;;;;;;;10.02;1.73;;;5.90;99.90;;;;;;4916645;29;20262;-76
2020/12/25 00:39:59;;;;;;;19.27;1.77;;;5.90;99.90;;;;;;4934394;29;20695;-76
2020/12/25 00:42:25;;;;;;;6.53;1.35;;;6.00;99.90;;;;;;4934036;29;20200;-77
2020/12/25 00:44:51;;;;;;;6.93;1.20;;;5.90;99.90;;;;;;4935184;29;20223;-78
2020/12/25 00:47:18;;;;;;;6.00;1.25;;;6.00;99.90;;;;;;4916814;29;20210;-77
2020/12/25 00:49:45;;;;;;;10.20;1.77;;;6.00;99.90;;;;;;4933934;29;20660;-76
2020/12/25 00:52:11;;;;;;;10.13;1.40;;;6.00;99.90;;;;;;4934390;29;20249;-78
2020/12/25 00:54:39;;;;;;;6.07;1.13;;;6.00;99.90;;;;;;4933633;29;20191;-76
2020/12/25 00:57:15;;;;;;;7.22;1.30;;;6.00;99.90;;;;;;4917318;29;20203;-77
2020/12/25 01:00:01;;;;;;;6.05;1.40;;;6.00;99.90;;;;;;4918330;29;20207;-77
2020/12/25 01:02:29;;;;;;;4.78;1.77;;;6.00;99.90;;;;;;4932823;29;20231;-77
2020/12/25 01:04:55;;;;;;;9.98;1.45;;;6.00;99.90;;;;;;4934070;29;20227;-78
2020/12/25 01:07:22;;;;;;;5.05;1.63;;;6.00;99.90;;;;;;4931221;29;20214;-77
2020/12/25 01:09:48;;;;;;;6.55;1.02;;;6.00;99.90;;;;;;4926619;29;20719;-77
2020/12/25 01:12:15;;;;;;;8.38;1.48;;;5.90;99.90;;;;;;4931449;29;20222;-77
2020/12/25 01:14:41;;;;;;;6.75;1.77;;;5.90;99.90;;;;;;4916720;29;20582;-77
2020/12/25 01:17:07;;;;;;;10.55;1.70;;;5.80;99.90;;;;;;4934399;29;20615;-77
2020/12/25 01:19:34;;;;;;;17.80;2.00;;;5.80;99.90;;;;;;4916233;29;20575;-79
2020/12/25 01:22:01;;;;;;;8.50;1.60;;;5.80;99.90;;;;;;4934384;29;20191;-77
2020/12/25 01:24:28;;;;;;;8.63;1.40;;;5.80;99.90;;;;;;4932641;29;20232;-76
2020/12/25 01:26:54;;;;;;;5.00;1.10;;;5.80;99.90;;;;;;4932951;29;20223;-76
2020/12/25 01:29:20;;;;;;;7.78;1.27;;;5.70;99.90;;;;;;4932891;29;20208;-77
2020/12/25 01:31:47;;;;;;;5.80;1.02;;;5.70;99.90;;;;;;4933272;29;20207;-76
2020/12/25 01:34:16;;;;;;;3.88;1.35;;;5.70;99.90;;;;;;4915897;29;21649;-77
2020/12/25 01:36:43;;;;;;;5.68;1.40;;;5.70;99.90;;;;;;4932192;29;20282;-78
2020/12/25 01:39:09;;;;;;;4.00;1.50;;;5.70;99.90;;;;;;4916523;29;20199;-77
2020/12/25 01:41:35;;;;;;;3.80;1.35;;;5.70;99.90;;;;;;4934201;29;20690;-78
2020/12/25 01:44:02;;;;;;;4.05;1.30;;;5.70;99.90;;;;;;4932174;29;20223;-78
2020/12/25 01:46:29;;;;;;;5.45;1.17;;;5.80;99.90;;;;;;4916928;29;20208;-77
2020/12/25 01:48:55;;;;;;;6.20;1.30;;;5.80;99.90;;;;;;4933360;29;20222;-77
2020/12/25 01:51:22;;;;;;;3.67;1.10;;;5.80;99.90;;;;;;4933313;29;20262;-77
2020/12/25 01:53:49;;;;;;;6.40;1.20;;;5.70;99.90;;;;;;4933532;29;20192;-77
2020/12/25 01:56:17;;;;;;;7.38;1.23;;;5.70;99.90;;;;;;4933856;29;20219;-76
2020/12/25 01:58:44;;;;;;;4.70;1.27;;;5.70;99.90;;;;;;4933118;29;20207;-77
2020/12/25 02:01:11;;;;;;;4.97;1.30;;;5.70;99.90;;;;;;4934148;29;20199;-77
2020/12/25 02:03:37;;;;;;;4.45;1.10;;;5.60;99.90;;;;;;4932848;29;20282;-77
2020/12/25 02:06:03;;;;;;;5.57;1.50;;;5.60;99.90;;;;;;4916661;29;20207;-77
2020/12/25 02:08:30;;;;;;;8.00;1.50;;;5.60;99.90;;;;;;4916488;29;20710;-76
2020/12/25 02:10:57;;;;;;;3.55;1.40;;;5.50;99.90;;;;;;4933751;29;20195;-77
2020/12/25 02:13:25;;;;;;;7.00;1.40;;;5.60;99.90;;;;;;4915971;29;20271;-77
2020/12/25 02:15:51;;;;;;;7.85;1.52;;;5.50;99.90;;;;;;4915078;29;20214;-77
2020/12/25 02:18:17;;;;;;;8.90;1.40;;;5.50;99.90;;;;;;4932713;29;20222;-77
2020/12/25 02:20:44;;;;;;;7.63;1.45;;;5.50;99.90;;;;;;4916475;29;20211;-77
2020/12/25 02:23:11;;;;;;;5.38;1.70;;;5.50;99.90;;;;;;4932337;29;20727;-77
2020/12/25 02:25:37;;;;;;;5.78;1.50;;;5.60;99.90;;;;;;4933260;29;20199;-76
2020/12/25 02:28:03;;;;;;;6.22;1.50;;;5.60;99.90;;;;;;4932523;29;20231;-76
2020/12/25 02:30:30;;;;;;;6.38;1.25;;;5.60;99.90;;;;;;4916251;29;20230;-77
2020/12/25 02:32:56;;;;;;;9.23;1.60;;;5.70;99.90;;;;;;4932994;29;20274;-76
2020/12/25 02:35:22;;;;;;;14.20;2.13;;;5.70;99.90;;;;;;4916379;29;20203;-76
2020/12/25 02:37:49;;;;;;;10.85;2.38;;;5.70;99.90;;;;;;4932100;29;20238;-76
2020/12/25 02:40:16;;;;;;;8.70;2.30;;;5.70;99.90;;;;;;4933157;29;20199;-75
2020/12/25 02:42:43;;;;;;;7.22;1.98;;;5.80;99.90;;;;;;4915461;29;20215;-77
2020/12/25 02:45:10;;;;;;;13.25;2.20;;;5.80;99.90;;;;;;4932501;29;20230;-76
2020/12/25 02:47:36;;;;;;;7.97;2.20;;;5.80;99.90;;;;;;4930397;29;20699;-77
2020/12/25 02:50:03;;;;;;;11.38;2.35;;;5.80;99.90;;;;;;4933791;29;20199;-77
2020/12/25 02:52:29;;;;;;;16.63;2.03;;;5.80;99.90;;;;;;4931684;29;20220;-77
2020/12/25 02:54:56;;;;;;;12.32;1.60;;;5.80;99.90;;;;;;4933525;29;20679;-76
2020/12/25 02:57:23;;;;;;;15.07;2.00;;;5.80;99.90;;;;;;4915379;29;20203;-77
2020/12/25 02:59:49;;;;;;;15.50;1.77;;;5.80;99.90;;;;;;4932572;29;20214;-77
2020/12/25 03:02:16;;;;;;;10.20;1.92;;;5.80;99.90;;;;;;4930502;29;20214;-77
2020/12/25 03:04:42;;;;;;;14.63;1.52;;;5.80;99.90;;;;;;4932699;29;20297;-77
2020/12/25 03:07:09;;;;;;;17.42;2.75;;;5.80;99.90;;;;;;4932221;29;20690;-76
2020/12/25 03:09:36;;;;;;;19.38;1.42;;;5.80;99.90;;;;;;4931719;29;20224;-77
2020/12/25 03:12:02;;;;;;;16.95;1.60;;;5.80;99.90;;;;;;4916014;29;20222;-76
2020/12/25 03:14:29;;;;;;;7.43;1.90;;;5.70;99.90;;;;;;4915418;29;20207;-77
2020/12/25 03:16:56;;;;;;;13.50;1.60;;;5.70;99.90;;;;;;4932802;29;20576;-76
2020/12/25 03:19:22;;;;;;;9.18;1.60;;;5.70;99.90;;;;;;4918023;29;20213;-77
2020/12/25 03:21:48;;;;;;;8.50;1.63;;;5.70;99.90;;;;;;4936486;29;20211;-77
2020/12/25 03:24:14;;;;;;;16.55;1.58;;;5.70;99.90;;;;;;4919019;29;20253;-76
2020/12/25 03:26:41;;;;;;;10.00;1.40;;;5.70;99.90;;;;;;4922674;29;20230;-76
2020/12/25 03:29:07;;;;;;;13.60;1.38;;;5.60;99.90;;;;;;4934323;29;20241;-77
2020/12/25 03:31:34;;;;;;;10.82;1.30;;;5.60;99.90;;;;;;4936695;29;20228;-77
2020/12/25 03:34:00;;;;;;;9.95;1.45;;;5.50;99.90;;;;;;4931491;29;20207;-77
2020/12/25 03:36:27;;;;;;;6.90;1.27;;;5.60;99.90;;;;;;4933887;29;20211;-78
2020/12/25 03:38:54;;;;;;;6.82;1.42;;;5.50;99.90;;;;;;4933694;29;20219;-78
2020/12/25 03:41:20;;;;;;;7.75;1.20;;;5.50;99.90;;;;;;4936157;29;20211;-78
2020/12/25 03:43:46;;;;;;;5.65;1.17;;;5.50;99.90;;;;;;4935160;29;20215;-77
2020/12/25 03:46:13;;;;;;;12.00;1.60;;;5.50;99.90;;;;;;4936414;29;20226;-77
2020/12/25 03:48:40;;;;;;;6.25;1.05;;;5.40;99.90;;;;;;4936131;29;20203;-77
2020/12/25 03:51:06;;;;;;;12.05;1.30;;;5.50;99.90;;;;;;4934382;29;20285;-77
2020/12/25 03:53:33;;;;;;;16.73;1.80;;;5.40;99.90;;;;;;4934379;29;20207;-77
2020/12/25 03:55:59;;;;;;;7.88;1.40;;;5.40;99.90;;;;;;4935766;29;20226;-77
2020/12/25 03:58:25;;;;;;;15.75;1.60;;;5.40;99.90;;;;;;4934316;29;20262;-77
2020/12/25 04:00:52;;;;;;;9.02;1.40;;;5.40;99.90;;;;;;4934044;29;20270;-77
2020/12/25 04:03:18;;;;;;;13.90;2.30;;;5.50;99.90;;;;;;4933579;29;20529;-77
2020/12/25 04:05:45;;;;;;;15.23;1.60;;;5.40;99.90;;;;;;4935586;29;20675;-78
2020/12/25 04:08:12;;;;;;;14.85;2.17;;;5.50;99.90;;;;;;4934853;29;20195;-77
2020/12/25 04:10:38;;;;;;;17.00;1.77;;;5.40;99.90;;;;;;4935878;29;20198;-77
2020/12/25 04:13:05;;;;;;;9.15;1.30;;;5.50;99.90;;;;;;4934074;29;20199;-77
2020/12/25 04:15:32;;;;;;;21.42;2.00;;;5.50;99.90;;;;;;4935805;29;20785;-77
2020/12/25 04:17:58;;;;;;;22.92;2.13;;;5.50;99.90;;;;;;4935599;29;20711;-77
2020/12/25 04:20:24;;;;;;;19.52;1.75;;;5.50;99.90;;;;;;4934417;29;20207;-77
2020/12/25 04:22:51;;;;;;;11.80;1.90;;;5.50;99.90;;;;;;4931497;29;20203;-76
2020/12/25 04:25:18;;;;;;;18.23;1.70;;;5.50;99.90;;;;;;4934046;29;20215;-78
2020/12/25 04:27:44;;;;;;;21.15;2.05;;;5.40;99.90;;;;;;4930177;29;20741;-76
2020/12/25 04:30:10;;;;;;;18.67;2.05;;;5.40;99.90;;;;;;4926783;29;20207;-77
2020/12/25 04:32:37;;;;;;;13.20;1.50;;;5.40;99.90;;;;;;4930861;29;20501;-78
2020/12/25 04:35:03;;;;;;;17.42;1.95;;;5.40;99.90;;;;;;4915232;29;20231;-77
2020/12/25 04:37:29;;;;;;;8.00;1.33;;;5.40;99.90;;;;;;4921110;29;20218;-77
2020/12/25 04:39:57;;;;;;;22.42;1.70;;;5.40;99.90;;;;;;4918076;29;20227;-77
2020/12/25 04:42:25;;;;;;;19.88;1.67;;;5.50;99.90;;;;;;4922499;29;20553;-77
2020/12/25 04:44:52;;;;;;;14.35;2.35;;;5.50;99.90;;;;;;4925507;29;20625;-77
2020/12/25 04:47:18;;;;;;;15.30;1.73;;;5.50;99.90;;;;;;4923273;29;20657;-77
2020/12/25 04:49:44;;;;;;;23.92;2.15;;;5.50;99.90;;;;;;4925051;29;20211;-77
2020/12/25 04:52:11;;;;;;;10.85;1.50;;;5.60;99.90;;;;;;4909680;29;20215;-77
2020/12/25 04:54:37;;;;;;;12.88;1.60;;;5.60;99.90;;;;;;4923568;29;20207;-77
2020/12/25 04:57:04;;;;;;;12.35;1.92;;;5.60;99.90;;;;;;4906285;29;20208;-77
2020/12/25 04:59:31;;;;;;;13.85;2.22;;;5.60;99.90;;;;;;4920692;29;20278;-77
2020/12/25 05:02:00;;;;;;;18.73;2.55;;;5.60;99.90;;;;;;4917192;29;20635;-77
2020/12/25 05:04:27;;;;;;;17.38;2.72;;;5.70;99.90;;;;;;4927619;29;20255;-76
2020/12/25 05:06:54;;;;;;;11.98;2.30;;;5.70;99.90;;;;;;4927913;29;20698;-82
2020/12/25 05:09:22;;;;;;;17.75;2.38;;;5.60;99.90;;;;;;4910629;29;20223;-79
2020/12/25 05:11:52;;;;;;;19.98;2.83;;;5.70;99.90;;;;;;4921645;29;20692;-78
2020/12/25 05:14:24;;;;;;;11.43;2.10;;;5.60;99.90;;;;;;4925399;29;20575;-78
2020/12/25 05:16:54;;;;;;;15.52;2.60;;;5.70;99.90;;;;;;4925032;29;20586;-78
2020/12/25 05:19:25;;;;;;;13.85;2.47;;;5.60;99.90;;;;;;4897003;29;20673;-78
2020/12/25 05:21:52;;;;;;;20.10;2.70;;;5.60;99.90;;;;;;4920881;29;20219;-77
2020/12/25 05:24:18;;;;;;;18.48;2.08;;;5.60;99.90;;;;;;4923221;29;20751;-77
2020/12/25 05:26:51;;;;;;;21.67;2.50;;;5.70;99.90;;;;;;4911791;29;21075;-77
2020/12/25 05:29:20;;;;;;;14.63;2.03;;;5.60;99.90;;;;;;4932678;29;20215;-79
2020/12/25 05:31:48;;;;;;;16.85;2.10;;;5.60;99.90;;;;;;4932621;29;20215;-77
2020/12/25 05:34:15;;;;;;;19.40;2.45;;;5.60;99.90;;;;;;4933914;29;20203;-79
2020/12/25 05:36:49;;;;;;;21.35;2.88;;;5.60;99.90;;;;;;4931997;29;20207;-78
2020/12/25 05:39:25;;;;;;;17.42;2.80;;;5.60;99.90;;;;;;4931221;29;20622;-77
2020/12/25 05:41:55;;;;;;;20.55;2.50;;;5.60;99.90;;;;;;4928576;29;20298;-77
2020/12/25 05:44:23;;;;;;;11.00;2.03;;;5.60;99.90;;;;;;4931489;29;20622;-78
2020/12/25 05:46:50;;;;;;;17.33;2.25;;;5.60;99.90;;;;;;4929189;29;20569;-77
2020/12/25 05:49:16;;;;;;;14.65;1.80;;;5.60;99.90;;;;;;4932086;29;20640;-79
2020/12/25 05:51:49;;;;;;;19.90;1.98;;;5.60;99.90;;;;;;4933293;29;20702;-80
2020/12/25 05:54:22;;;;;;;13.15;1.70;;;5.60;99.90;;;;;;4930661;29;20218;-77
2020/12/25 05:56:52;;;;;;;13.18;1.40;;;5.60;99.90;;;;;;4932983;29;20207;-77
2020/12/25 05:59:25;;;;;;;6.13;1.17;;;5.60;99.90;;;;;;4929811;29;20251;-78
2020/12/25 06:01:55;;;;;;;4.95;1.00;;;5.60;99.90;;;;;;4930045;29;20614;-77
2020/12/25 06:04:26;;;;;;;6.85;1.00;;;5.60;99.90;;;;;;4928526;29;20226;-77
2020/12/25 06:06:53;;;;;;;7.40;1.17;;;5.70;99.90;;;;;;4931449;29;20250;-77
2020/12/25 06:09:21;;;;;;;15.32;1.50;;;5.70;99.90;;;;;;4924263;29;20207;-79
2020/12/25 06:11:50;;;;;;;7.03;1.30;;;5.70;99.90;;;;;;4932967;29;20211;-79
2020/12/25 06:14:18;;;;;;;7.53;1.20;;;5.70;99.90;;;;;;4932587;29;20206;-79
2020/12/25 06:17:04;;;;;;;13.00;1.65;;;5.60;99.90;;;;;;4932841;29;20592;-78
2020/12/25 06:19:37;;;;;;;13.27;1.58;;;5.60;99.90;;;;;;4931433;29;20233;-78
2020/12/25 06:22:07;;;;;;;13.10;1.50;;;5.60;99.90;;;;;;4931224;29;20203;-79
2020/12/25 06:24:36;;;;;;;9.82;1.40;;;5.50;99.90;;;;;;4931435;29;20231;-79
2020/12/25 06:27:05;;;;;;;7.45;1.00;;;5.50;99.90;;;;;;4929528;29;20289;-77
2020/12/25 06:29:31;;;;;;;17.35;1.60;;;5.50;99.90;;;;;;4926532;29;20683;-78
2020/12/25 06:32:00;;;;;;;12.80;1.42;;;5.50;99.90;;;;;;4924133;29;20215;-76
2020/12/25 06:34:43;;;;;;;11.05;1.52;;;5.50;99.90;;;;;;4929904;29;20290;-77
2020/12/25 06:37:13;;;;;;;10.50;1.50;;;5.50;99.90;;;;;;4931043;29;20234;-80
2020/12/25 06:39:46;;;;;;;8.18;1.67;;;5.50;99.90;;;;;;4931800;29;20664;-79
2020/12/25 06:42:12;;;;;;;17.45;1.50;;;5.50;99.90;;;;;;4930179;29;20600;-79
2020/12/25 06:44:42;;;;;;;10.68;1.30;;;5.50;99.90;;;;;;4929389;29;20226;-78
2020/12/25 06:47:10;;;;;;;16.60;2.45;;;5.50;99.90;;;;;;4931639;29;20246;-79
2020/12/25 06:49:37;;;;;;;11.35;1.60;;;5.50;99.90;;;;;;4931828;29;20203;-79
2020/12/25 06:52:04;;;;;;;11.65;1.60;;;5.50;99.90;;;;;;4932147;29;20680;-77
2020/12/25 06:54:40;;;;;;;9.95;1.63;;;5.50;99.90;;;;;;4935457;29;20214;-80
2020/12/25 06:57:10;;;;;;;13.93;2.42;;;5.50;99.90;;;;;;4932576;29;20207;-76
2020/12/25 06:59:40;;;;;;;11.55;1.88;;;5.50;99.90;;;;;;4933503;29;20632;-78
2020/12/25 07:02:06;;;;;;;15.40;1.75;;;5.50;99.90;;;;;;4935868;29;20204;-78
2020/12/25 07:04:33;;;;;;;14.73;2.10;;;5.50;99.90;;;;;;4934109;29;20222;-77
2020/12/25 07:07:02;;;;;;;13.68;1.63;;;5.50;99.90;;;;;;4933156;29;20196;-79
2020/12/25 07:09:38;;;;;;;14.25;1.75;;;5.60;99.90;;;;;;4934447;29;20211;-78
2020/12/25 07:12:09;;;;;;;12.55;2.00;;;5.60;99.90;;;;;;4934637;29;20768;-77
2020/12/25 07:14:35;;;;;;;7.13;1.27;;;5.50;99.90;;;;;;4934890;29;20743;-78
2020/12/25 07:17:01;;;;;;;27.58;2.00;;;5.50;99.90;;;;;;4934675;29;20210;-78
2020/12/25 07:19:28;;;;;;;10.40;1.20;;;5.50;99.90;;;;;;4933741;29;20214;-76
2020/12/25 07:21:54;;;;;;;12.63;1.30;;;5.40;99.90;;;;;;4936709;29;20300;-78
2020/12/25 07:24:21;;;;;;;18.20;1.65;;;5.40;99.90;;;;;;4931877;29;20226;-78
2020/12/25 07:26:48;;;;;;;10.15;1.55;;;5.30;99.90;;;;;;4934482;29;20598;-78
2020/12/25 07:29:15;;;;;;;6.35;1.23;;;5.20;99.90;;;;;;4934928;29;20211;-78
2020/12/25 07:31:46;;;;;;;6.57;1.48;;;5.20;99.90;;;;;;4936192;29;20206;-78
2020/12/25 07:34:17;;;;;;;10.70;1.70;;;5.10;99.90;;;;;;4935680;29;20663;-79
2020/12/25 07:36:44;;;;;;;7.70;1.88;;;5.00;99.90;;;;;;4936604;29;20199;-78
2020/12/25 07:39:11;;;;;;;9.77;1.55;;;4.90;99.90;;;;;;4933917;29;20211;-78
2020/12/25 07:41:37;;;;;;;6.90;1.90;;;4.90;99.90;;;;;;4915588;29;20208;-80
2020/12/25 07:44:05;;;;;;;16.25;3.35;;;4.80;99.90;;;;;;4917579;29;20231;-77
2020/12/25 07:46:31;;;;;;;15.15;2.53;;;4.80;99.90;;;;;;4935721;29;20671;-79
2020/12/25 07:48:59;;;;;;;14.07;2.40;;;4.70;99.90;;;;;;4918342;29;20207;-78
2020/12/25 07:51:25;;;;;;;13.57;2.17;;;4.70;99.90;;;;;;4918772;29;20212;-78
2020/12/25 07:53:54;;;;;;;11.32;1.90;;;4.70;99.90;;;;;;4917985;29;20237;-77
2020/12/25 07:56:22;;;;;;;19.33;2.35;;;4.60;99.90;;;;;;4935881;29;20214;-77
2020/12/25 07:58:49;;;;;;;11.68;1.80;;;4.60;99.90;;;;;;4934155;29;20211;-79
2020/12/25 08:01:18;;;;;;;18.67;2.70;;;4.60;99.90;;;;;;4935269;29;20211;-79
2020/12/25 08:03:45;;;;;;;24.55;2.60;;;4.60;99.90;;;;;;4931944;29;20211;-77
2020/12/25 08:06:14;;;;;;;15.40;2.47;;;4.60;99.90;;;;;;4933989;29;20207;-77
2020/12/25 08:08:44;;;;;;;21.10;3.45;;;4.60;99.90;;;;;;4915331;29;20218;-76
2020/12/25 08:11:11;;;;;;;13.30;2.65;;;4.60;99.90;;;;;;4932602;29;20204;-77
2020/12/25 08:13:38;;;;;;;18.98;2.13;;;4.60;99.90;;;;;;4934283;29;20211;-78
2020/12/25 08:16:06;;;;;;;15.63;2.03;;;4.70;99.90;;;;;;4918049;29;20206;-79
2020/12/25 08:18:33;;;;;;;18.13;2.35;;;4.70;99.90;;;;;;4917472;29;20289;-78
2020/12/25 08:21:01;;;;;;;15.30;1.70;;;4.70;99.90;;;;;;4936139;29;20214;-78
2020/12/25 08:23:31;;;;;;;19.80;2.42;;;4.70;99.90;;;;;;4916775;29;20218;-80
2020/12/25 08:25:57;;;;;;;13.10;2.08;;;4.70;99.90;;;;;;4935977;29;20231;-78
2020/12/25 08:28:24;;;;;;;15.57;2.15;;;4.70;99.90;;;;;;4932260;29;20254;-77
2020/12/25 08:30:50;;;;;;;11.55;1.40;;;4.80;99.90;;;;;;4935705;29;20695;-77
2020/12/25 08:33:24;;;;;;;18.60;2.00;;;4.80;99.90;;;;;;4917104;29;20219;-78
2020/12/25 08:35:53;;;;;;;21.70;2.10;;;4.80;99.90;;;;;;4933998;29;20660;-77
2020/12/25 08:38:22;;;;;;;18.60;1.90;;;4.80;99.90;;;;;;4916547;29;20215;-78
2020/12/25 08:40:49;;;;;;;17.98;2.00;;;4.90;99.90;;;;;;4932723;29;20237;-77
2020/12/25 08:43:17;;;;;;;11.32;1.83;;;4.90;99.90;;;;;;4934142;29;20229;-77
2020/12/25 08:45:58;;;;;;;11.20;2.58;;;4.90;99.90;;;;;;4930337;29;20604;-77
2020/12/25 08:48:26;;;;;;;18.45;2.65;;;4.90;99.90;;;;;;4933146;29;20286;-76
2020/12/25 08:51:06;;;;;;;12.10;1.85;;;5.00;99.90;;;;;;4917701;29;20339;-76
2020/12/25 08:53:33;;;;;;;9.13;1.58;;;5.00;99.90;;;;;;4933315;29;20207;-77
2020/12/25 08:56:13;;;;;;;17.75;1.80;;;5.00;99.90;;;;;;4933437;29;20235;-77
2020/12/25 08:58:39;;;;;;;15.73;1.92;;;5.00;99.90;;;;;;4932567;29;20203;-77
2020/12/25 09:01:06;;;;;;;12.38;1.80;;;5.00;99.90;;;;;;4934638;29;20702;-76
2020/12/25 09:03:40;;;;;;;14.10;1.83;;;5.00;99.90;;;;;;4932866;29;20584;-76
2020/12/25 09:06:08;;;;;;;11.10;2.08;;;5.00;99.90;;;;;;4934406;29;20227;-77
2020/12/25 09:08:35;;;;;;;8.68;1.90;;;5.00;99.90;;;;;;4916241;29;20211;-76
2020/12/25 09:11:01;;;;;;;14.48;1.80;;;5.10;99.90;;;;;;4933217;29;20203;-76
2020/12/25 09:13:28;;;;;;;14.30;1.98;;;5.10;99.90;;;;;;4933168;29;20259;-76
2020/12/25 09:15:54;;;;;;;15.35;2.28;;;5.10;99.90;;;;;;4933621;29;20207;-76
2020/12/25 09:18:20;;;;;;;10.23;1.98;;;5.10;99.90;;;;;;4932511;29;20577;-77
2020/12/25 09:20:47;;;;;;;11.27;2.20;;;5.10;99.90;;;;;;4917285;29;20222;-78
2020/12/25 09:23:14;;;;;;;11.32;2.20;;;5.10;99.90;;;;;;4931572;29;20199;-76
2020/12/25 09:25:40;;;;;;;15.48;2.38;;;5.20;99.90;;;;;;4917047;29;20223;-77
2020/12/25 09:28:06;;;;;;;15.00;2.50;;;5.20;99.90;;;;;;4932819;29;20235;-77
2020/12/25 09:30:33;;;;;;;17.23;2.80;;;5.30;99.90;;;;;;4934701;29;20550;-77
2020/12/25 09:32:59;;;;;;;23.13;3.30;;;5.30;99.90;;;;;;4916000;29;20222;-76
2020/12/25 09:35:25;;;;;;;13.75;2.17;;;5.30;99.90;;;;;;4934040;29;20195;-77
2020/12/25 09:37:51;;;;;;;15.57;2.30;;;5.40;99.90;;;;;;4932793;29;20214;-77
2020/12/25 09:40:19;;;;;;;11.27;2.63;;;5.40;99.90;;;;;;4933130;29;20215;-77
2020/12/25 09:42:45;;;;;;;15.20;2.20;;;5.40;99.90;;;;;;4932208;29;20218;-77
2020/12/25 09:45:11;;;;;;;19.30;3.47;;;5.50;99.90;;;;;;4933012;29;20667;-77
2020/12/25 09:47:37;;;;;;;7.55;2.17;;;5.50;99.90;;;;;;4930204;29;20557;-76
2020/12/25 09:50:04;;;;;;;14.85;1.75;;;5.60;99.90;;;;;;4933791;29;20266;-77
2020/12/25 09:52:30;;;;;;;12.52;1.92;;;5.70;99.90;;;;;;4932299;29;20218;-76
2020/12/25 09:54:57;;;;;;;12.98;1.90;;;5.70;99.90;;;;;;4934243;29;20247;-77
2020/12/25 09:57:24;;;;;;;23.85;2.63;;;5.80;99.90;;;;;;4932604;29;20274;-78
2020/12/25 09:59:51;;;;;;;17.63;2.42;;;5.90;99.90;;;;;;4933658;29;20203;-77
2020/12/25 10:02:18;;;;;;;14.30;2.17;;;6.00;99.90;;;;;;4932843;29;20203;-77
2020/12/25 10:04:44;;;;;;;13.50;2.40;;;6.00;99.90;;;;;;4933233;29;20254;-77
2020/12/25 10:07:10;;;;;;;18.45;1.98;;;6.10;99.90;;;;;;4916587;29;20203;-77
2020/12/25 10:09:38;;;;;;;9.45;2.22;;;6.20;99.90;;;;;;4932934;29;20567;-77
2020/12/25 10:12:04;;;;;;;9.57;2.22;;;6.20;99.90;;;;;;4931910;29;20211;-77
2020/12/25 10:14:31;;;;;;;12.10;2.28;;;6.30;99.90;;;;;;4915403;29;20671;-76
2020/12/25 10:16:58;;;;;;;17.70;2.60;;;6.40;99.90;;;;;;4916518;29;20573;-76
2020/12/25 10:19:25;;;;;;;14.30;2.30;;;6.40;99.90;;;;;;4929394;29;20215;-77
2020/12/25 10:21:51;;;;;;;13.18;2.10;;;6.40;99.90;;;;;;4932740;29;20207;-76
2020/12/25 10:24:17;;;;;;;13.15;2.60;;;6.40;99.90;;;;;;4931712;29;20585;-77
2020/12/25 10:26:48;;;;;;;14.80;1.95;;;6.40;99.90;;;;;;4915570;29;20235;-76
2020/12/25 10:29:14;;;;;;;16.05;2.55;;;6.50;99.90;;;;;;4931736;29;20203;-76
2020/12/25 10:31:45;;;;;;;15.48;2.05;;;6.50;99.90;;;;;;4933688;29;20587;-76
2020/12/25 10:34:11;;;;;;;11.27;2.30;;;6.60;99.90;;;;;;4932143;29;20215;-76
2020/12/25 10:36:38;;;;;;;17.05;2.45;;;6.60;99.90;;;;;;4933833;29;20203;-77
2020/12/25 10:39:04;;;;;;;18.10;2.30;;;6.70;99.90;;;;;;4931832;29;20616;-77
2020/12/25 10:41:30;;;;;;;10.20;2.50;;;6.70;99.90;;;;;;4916040;29;20207;-77
2020/12/25 10:43:57;;;;;;;17.17;3.45;;;6.70;99.90;;;;;;4928810;29;20258;-78
2020/12/25 10:46:23;;;;;;;17.65;2.30;;;6.80;99.90;;;;;;4933702;29;20206;-76
2020/12/25 10:48:50;;;;;;;18.83;2.40;;;6.80;99.90;;;;;;4931773;29;20217;-77
2020/12/25 10:51:17;;;;;;;14.00;2.35;;;6.80;99.90;;;;;;4931479;29;20210;-77
2020/12/25 10:53:43;;;;;;;16.35;2.70;;;6.90;99.90;;;;;;4931224;29;20204;-77
2020/12/25 10:56:09;;;;;;;9.90;2.22;;;7.00;99.90;;;;;;4932086;29;20199;-77
2020/12/25 10:58:36;;;;;;;19.00;2.22;;;7.00;99.90;;;;;;4914406;29;20664;-76
2020/12/25 11:01:02;;;;;;;12.15;2.10;;;7.00;99.90;;;;;;4932799;29;20226;-77
2020/12/25 11:03:28;;;;;;;12.35;1.75;;;7.10;99.90;;;;;;4931122;29;20207;-76
2020/12/25 11:05:55;;;;;;;13.50;1.90;;;7.10;99.90;;;;;;4933298;29;20219;-76
2020/12/25 11:08:22;;;;;;;8.80;1.77;;;7.10;99.90;;;;;;4931711;29;20605;-76
2020/12/25 11:10:48;;;;;;;7.32;1.50;;;7.10;99.90;;;;;;4916224;29;20214;-76
2020/12/25 11:13:14;;;;;;;12.05;1.73;;;7.00;99.90;;;;;;4932406;29;20203;-77
2020/12/25 11:15:41;;;;;;;8.85;1.30;;;7.00;99.90;;;;;;4931611;29;20233;-76
2020/12/25 11:18:07;;;;;;;9.27;1.60;;;7.00;99.90;;;;;;4931742;29;20679;-77
2020/12/25 11:20:34;;;;;;;10.63;1.42;;;7.00;99.90;;;;;;4916260;29;20207;-78
2020/12/25 11:23:01;;;;;;;6.90;1.30;;;7.00;99.90;;;;;;4932028;29;20214;-78
2020/12/25 11:25:27;;;;;;;12.25;1.58;;;7.00;99.90;;;;;;4929794;29;20223;-77
2020/12/25 11:27:53;;;;;;;7.28;1.50;;;7.00;99.90;;;;;;4932214;29;20648;-77
2020/12/25 11:30:20;;;;;;;9.75;1.67;;;7.00;99.90;;;;;;4932184;29;20211;-76
2020/12/25 11:32:46;;;;;;;5.53;1.40;;;7.00;99.90;;;;;;4928974;29;20672;-77
2020/12/25 11:35:12;;;;;;;8.35;2.00;;;7.00;99.90;;;;;;4932797;29;20196;-77
2020/12/25 11:37:38;;;;;;;5.15;1.45;;;7.10;99.90;;;;;;4930288;29;20577;-77
2020/12/25 11:40:06;;;;;;;10.27;1.60;;;7.20;99.90;;;;;;4934555;29;20423;-77
2020/12/25 11:42:32;;;;;;;7.28;1.58;;;7.50;99.90;;;;;;4934166;29;20491;-76
2020/12/25 11:44:58;;;;;;;6.60;1.20;;;7.90;99.90;;;;;;4917597;29;20494;-76
2020/12/25 11:47:25;;;;;;;6.57;1.40;;;8.20;99.90;;;;;;4934367;29;20431;-76
2020/12/25 11:49:53;;;;;;;4.10;1.17;;;8.40;99.90;;;;;;4934876;29;20430;-77
2020/12/25 11:52:19;;;;;;;11.38;5.28;;;8.50;99.90;;;;;;4933514;29;20430;-76
2020/12/25 11:54:45;;;;;;;4.68;1.33;;;8.60;99.60;;;;;;4933900;29;20435;-75
2020/12/25 11:57:13;;;;;;;5.82;1.27;;;8.70;99.60;;;;;;4932672;29;20443;-76
2020/12/25 11:59:39;;;;;;;4.85;1.42;;;8.70;99.30;;;;;;4931381;29;20435;-76
2020/12/25 12:02:05;;;;;;;4.03;1.10;;;8.70;99.90;;;;;;4933235;29;20931;-76
2020/12/25 12:04:32;;;;;;;4.45;1.10;;;8.80;99.80;;;;;;4934326;29;20739;-76
2020/12/25 12:06:58;;;;;;;6.40;1.50;;;8.50;99.90;;;;;;4935017;29;20437;-77
2020/12/25 12:09:25;;;;;;;6.38;1.23;;;8.70;99.90;;;;;;4916901;29;20435;-77
2020/12/25 12:11:51;;;;;;;5.75;1.42;;;8.90;99.70;;;;;;4935048;29;20435;-76
2020/12/25 12:14:18;;;;;;;5.30;1.27;;;9.00;99.40;;;;;;4934208;29;20485;-76
2020/12/25 12:16:44;;;;;;;7.38;1.70;;;9.10;99.10;;;;;;4935292;29;20435;-77
2020/12/25 12:19:11;;;;;;;4.78;1.02;;;9.20;99.10;;;;;;4933145;29;20417;-76
2020/12/25 12:21:37;;;;;;;6.90;1.27;;;9.20;99.10;;;;;;4933636;29;20231;-76
2020/12/25 12:24:04;;;;;;;5.50;1.35;;;8.80;99.50;;;;;;4931380;29;20225;-77
2020/12/25 12:26:30;;;;;;;113.03;90.05;;;8.50;99.90;;;;;;4917335;29;20692;-76
2020/12/25 12:28:56;;;;;;;15.20;7.13;;;8.20;99.90;;;;;;4933727;29;20203;-78
2020/12/25 12:31:24;;;;;;;10.02;2.78;;;8.10;99.90;;;;;;4935285;29;20362;-76
2020/12/25 12:33:50;;;;;;;13.05;3.50;;;7.90;99.90;;;;;;4929813;29;20272;-77
2020/12/25 12:36:17;;;;;;;9.55;1.73;;;7.90;99.90;;;;;;4934994;29;20307;-77
2020/12/25 12:38:43;;;;;;;6.88;1.70;;;7.80;99.90;;;;;;4933027;29;20218;-78
2020/12/25 12:41:09;;;;;;;9.43;1.60;;;7.80;99.90;;;;;;4934883;29;20270;-77
2020/12/25 12:43:36;;;;;;;12.45;1.67;;;7.80;99.90;;;;;;4916329;29;20668;-77
2020/12/25 12:46:02;;;;;;;12.43;1.90;;;7.80;99.90;;;;;;4917406;29;20270;-77
2020/12/25 12:48:29;;;;;;;6.18;1.40;;;7.80;99.90;;;;;;4930571;29;20207;-77
2020/12/25 12:50:56;;;;;;;8.13;1.50;;;7.90;99.90;;;;;;4934221;29;20207;-77